Time;durP1;ratioP1;P1;durP2;ratioP2;P2;SDS_P1;SDS_P2;PMS_P1;PMS_P2;Temp;Humidity;BMP_temperature;BMP_pressure;BME280_temperature;BME280_humidity;BME280_pressure;Samples;Min_cycle;Max_cycle;Signal;HPM_P1;HPM_P2
2022/03/20 00:00:39;;;;;;;12.30;5.80;;;;;;;-0.62;50.19;99177.69;6225735;22;20198;-83
2022/03/20 00:03:09;;;;;;;8.37;5.50;;;;;;;-0.32;49.86;99199.88;6223971;22;20250;-82
2022/03/20 00:05:39;;;;;;;8.40;5.33;;;;;;;-0.77;50.13;99132.28;6249517;22;20181;-84
2022/03/20 00:08:11;;;;;;;9.33;5.43;;;;;;;-0.10;49.65;99222.63;6221120;22;20180;-84
2022/03/20 00:10:45;;;;;;;8.00;5.13;;;;;;;-0.24;48.63;99174.66;6219487;22;20176;-88
2022/03/20 00:13:17;;;;;;;8.00;5.10;;;;;;;-0.26;49.20;99133.88;6223355;22;20168;-86
2022/03/20 00:15:47;;;;;;;7.20;5.00;;;;;;;0.04;49.35;99209.47;6274564;22;20247;-86
2022/03/20 00:18:16;;;;;;;8.10;5.80;;;;;;;-0.15;49.85;99198.72;6218327;23;20208;-87
2022/03/20 00:20:47;;;;;;;7.63;4.90;;;;;;;-0.09;48.78;99195.50;6216572;23;20521;-82
2022/03/20 00:23:16;;;;;;;8.13;5.23;;;;;;;-0.42;49.29;99146.97;6216388;23;20184;-84
2022/03/20 00:25:45;;;;;;;9.93;5.13;;;;;;;-0.23;49.39;99207.78;6217260;23;20178;-83
2022/03/20 00:28:14;;;;;;;7.00;5.03;;;;;;;-0.13;49.99;99207.28;6214869;23;20601;-82
2022/03/20 00:30:42;;;;;;;7.73;4.87;;;;;;;0.12;48.77;99208.00;6167480;23;20173;-86
2022/03/20 00:33:10;;;;;;;11.40;5.23;;;;;;;-0.39;48.88;99144.50;6190357;23;20207;-89
2022/03/20 00:35:38;;;;;;;11.70;5.67;;;;;;;0.05;48.48;99206.09;6244044;23;20253;-87
2022/03/20 00:38:07;;;;;;;9.20;5.20;;;;;;;-0.14;48.05;99152.06;6190404;23;20251;-83
2022/03/20 00:40:35;;;;;;;10.33;4.60;;;;;;;0.23;48.68;99201.56;6242993;23;20189;-84
2022/03/20 00:43:04;;;;;;;6.73;4.33;;;;;;;0.11;48.27;99175.72;6216841;23;20173;-83
2022/03/20 00:45:31;;;;;;;6.10;4.53;;;;;;;0.24;48.08;99177.81;6215651;23;20174;-84
2022/03/20 00:48:00;;;;;;;9.87;4.63;;;;;;;0.26;47.52;99160.88;6192827;23;20690;-85
2022/03/20 00:50:28;;;;;;;7.37;4.67;;;;;;;0.36;47.24;99163.72;6214171;23;20177;-91
2022/03/20 00:52:57;;;;;;;7.33;4.80;;;;;;;0.13;47.87;99143.50;6217329;23;20165;-85
2022/03/20 00:55:24;;;;;;;8.07;4.67;;;;;;;0.01;48.52;99166.94;6215475;23;20655;-82
2022/03/20 00:57:52;;;;;;;8.40;5.10;;;;;;;0.14;48.57;99199.59;6216712;23;20169;-84
2022/03/20 01:00:19;;;;;;;11.40;5.30;;;;;;;0.11;47.62;99161.28;6216230;23;20561;-83
2022/03/20 01:02:47;;;;;;;8.60;5.43;;;;;;;0.14;48.09;99146.13;6165951;23;20252;-85
2022/03/20 01:05:15;;;;;;;9.90;5.53;;;;;;;0.05;47.97;99147.50;6192620;23;20536;-85
2022/03/20 01:07:45;;;;;;;10.47;5.83;;;;;;;0.27;48.04;99181.28;6189794;23;20652;-87
2022/03/20 01:10:12;;;;;;;9.87;4.93;;;;;;;0.35;47.57;99177.28;6194318;23;20173;-83
2022/03/20 01:12:41;;;;;;;9.47;5.20;;;;;;;0.38;47.22;99194.34;6219214;23;20171;-83
2022/03/20 01:15:10;;;;;;;9.73;5.03;;;;;;;0.12;47.70;99190.19;6219567;23;20223;-83
2022/03/20 01:17:38;;;;;;;8.70;5.70;;;;;;;-0.24;48.13;99133.94;6244756;23;20559;-84
2022/03/20 01:20:08;;;;;;;9.00;5.20;;;;;;;-0.66;47.83;99069.03;6274528;22;20230;-84
2022/03/20 01:22:40;;;;;;;8.47;4.93;;;;;;;-0.07;47.61;99151.44;6274838;22;20550;-88
2022/03/20 01:25:08;;;;;;;10.73;4.73;;;;;;;-0.01;48.10;99145.66;6193968;22;20247;-83
2022/03/20 01:27:37;;;;;;;6.13;4.30;;;;;;;-0.08;47.32;99134.44;6221829;22;20640;-85
2022/03/20 01:30:05;;;;;;;7.50;4.23;;;;;;;0.29;47.33;99186.44;6244537;22;20188;-86
2022/03/20 01:32:33;;;;;;;6.53;4.33;;;;;;;0.33;47.74;99171.28;6199283;22;20172;-82
2022/03/20 01:35:00;;;;;;;8.17;4.70;;;;;;;0.06;46.19;99096.66;6222526;22;20175;-82
2022/03/20 01:37:28;;;;;;;4.87;3.83;;;;;;;0.24;46.13;99168.47;6246073;22;20247;-88
2022/03/20 01:39:56;;;;;;;8.33;4.40;;;;;;;-0.01;46.28;99105.78;6221000;22;20739;-83
2022/03/20 01:42:23;;;;;;;7.93;4.67;;;;;;;-0.07;47.22;99166.72;6243700;22;20554;-83
2022/03/20 01:44:50;;;;;;;9.57;5.07;;;;;;;-0.17;48.27;99139.28;6260316;22;20171;-86
2022/03/20 01:47:18;;;;;;;5.90;4.07;;;;;;;-0.21;48.03;99151.84;6244150;22;20191;-85
2022/03/20 01:49:45;;;;;;;8.40;4.47;;;;;;;-0.08;47.99;99141.19;6246721;22;20164;-86
2022/03/20 01:52:23;;;;;;;8.13;4.83;;;;;;;-0.57;48.01;99044.72;6273946;22;20239;-83
2022/03/20 01:54:51;;;;;;;7.83;4.30;;;;;;;0.11;47.76;99166.38;6219277;22;20168;-85
2022/03/20 01:57:23;;;;;;;6.23;4.20;;;;;;;-0.35;45.75;99084.41;6220052;22;20176;-84
2022/03/20 01:59:51;;;;;;;6.33;3.67;;;;;;;0.09;47.07;99177.34;6193213;22;20188;-88
2022/03/20 02:02:19;;;;;;;5.30;3.90;;;;;;;0.15;46.86;99173.28;6248456;22;20230;-82
2022/03/20 02:04:47;;;;;;;4.70;3.73;;;;;;;0.28;46.14;99162.66;6220114;22;20176;-85
2022/03/20 02:07:15;;;;;;;5.90;3.57;;;;;;;-0.21;44.75;99070.41;6221621;22;20175;-90
2022/03/20 02:09:42;;;;;;;8.43;4.37;;;;;;;0.45;44.77;99169.09;6246153;22;20243;-83
2022/03/20 02:12:11;;;;;;;6.83;3.97;;;;;;;0.58;44.13;99170.28;6221897;22;20161;-86
2022/03/20 02:14:38;;;;;;;4.63;3.40;;;;;;;0.50;44.42;99170.06;6225711;22;20168;-83
2022/03/20 02:17:07;;;;;;;6.27;3.43;;;;;;;0.12;45.14;99118.88;6221759;22;20174;-86
2022/03/20 02:19:35;;;;;;;5.40;3.13;;;;;;;0.33;45.25;99135.59;6272101;22;20220;-84
2022/03/20 02:22:04;;;;;;;8.60;4.37;;;;;;;0.16;45.25;99113.91;6217910;22;20164;-88
2022/03/20 02:24:34;;;;;;;6.10;4.43;;;;;;;0.48;45.21;99168.28;6219723;22;20168;-83
2022/03/20 02:27:11;;;;;;;8.70;3.90;;;;;;;0.49;44.98;99170.03;6243740;22;20153;-83
2022/03/20 02:29:39;;;;;;;7.23;4.30;;;;;;;0.27;44.77;99148.16;6218932;22;20480;-83
2022/03/20 02:32:09;;;;;;;5.47;4.00;;;;;;;0.04;45.12;99108.47;6194923;22;20188;-86
2022/03/20 02:34:38;;;;;;;7.73;3.77;;;;;;;0.37;44.54;99167.16;6217631;22;20200;-83
2022/03/20 02:37:06;;;;;;;6.70;3.77;;;;;;;0.05;45.40;99120.38;6220059;22;20161;-88
2022/03/20 02:39:35;;;;;;;6.33;4.50;;;;;;;0.41;44.42;99174.06;6191769;22;20192;-88
2022/03/20 02:42:04;;;;;;;5.70;4.03;;;;;;;-0.13;44.71;99081.66;6194554;22;20172;-85
2022/03/20 02:44:56;;;;;;;4.97;3.70;;;;;;;0.41;44.41;99171.50;6218850;22;20169;-84
2022/03/20 02:47:26;;;;;;;7.97;4.17;;;;;;;0.11;44.77;99112.03;6217695;22;20169;-86
2022/03/20 02:49:56;;;;;;;6.30;4.20;;;;;;;0.09;44.46;99123.84;6219739;22;20203;-86
2022/03/20 02:52:26;;;;;;;7.83;4.13;;;;;;;0.11;45.18;99119.69;6192530;22;20528;-87
2022/03/20 02:55:01;;;;;;;6.13;3.40;;;;;;;0.08;45.42;99109.41;6244718;22;20243;-84
2022/03/20 02:57:30;;;;;;;5.57;3.87;;;;;;;0.07;45.33;99138.22;6217300;22;20646;-82
2022/03/20 03:00:03;;;;;;;6.37;3.87;;;;;;;-0.19;45.43;99084.91;6219087;22;20895;-82
2022/03/20 03:02:43;;;;;;;6.93;4.00;;;;;;;0.10;45.13;99128.16;6244451;22;20315;-83
2022/03/20 03:05:14;;;;;;;6.07;3.80;;;;;;;-0.57;45.36;99021.81;6242197;22;20619;-86
2022/03/20 03:13:17;;;;;;;5.53;3.83;;;;;;;-0.10;44.14;99095.34;6244086;22;20243;-90
2022/03/20 03:15:44;;;;;;;6.03;3.67;;;;;;;0.05;44.12;99119.50;6219576;22;20648;-83
2022/03/20 03:18:12;;;;;;;13.53;7.67;;;;;;;0.30;44.45;99162.69;6242378;22;20687;-85
2022/03/20 03:20:40;;;;;;;7.23;4.50;;;;;;;-0.16;43.34;99074.78;6220245;22;20181;-88
2022/03/20 03:23:07;;;;;;;6.37;4.20;;;;;;;0.23;43.74;99142.97;6218045;22;20169;-89
2022/03/20 03:25:39;;;;;;;5.23;3.97;;;;;;;-0.08;44.11;99092.81;6219934;22;20169;-86
2022/03/20 03:28:10;;;;;;;7.57;4.03;;;;;;;0.03;44.50;99105.88;6194190;22;20164;-82
2022/03/20 03:30:40;;;;;;;6.30;3.97;;;;;;;0.01;44.98;99108.38;6219573;22;20160;-86
2022/03/20 03:33:08;;;;;;;6.77;3.83;;;;;;;-0.11;44.20;99083.44;6246714;22;20200;-87
2022/03/20 03:35:42;;;;;;;6.37;4.10;;;;;;;-0.03;44.45;99111.66;6217479;22;20172;-82
2022/03/20 03:38:14;;;;;;;6.53;4.40;;;;;;;0.19;44.64;99153.88;6271907;22;20156;-87
2022/03/20 03:40:43;;;;;;;4.20;3.37;;;;;;;0.25;42.79;99161.72;6217053;22;20736;-84
2022/03/20 03:43:11;;;;;;;4.63;3.47;;;;;;;-0.14;43.43;99092.66;6218433;22;20164;-86
2022/03/20 03:45:39;;;;;;;6.53;4.23;;;;;;;0.14;43.31;99117.22;6217705;22;20172;-92
2022/03/20 03:48:07;;;;;;;6.07;4.17;;;;;;;-0.14;43.37;99057.00;6192696;22;20172;-84
2022/03/20 03:50:36;;;;;;;7.47;4.40;;;;;;;0.13;44.11;99144.38;6219448;22;20176;-83
2022/03/20 03:53:05;;;;;;;7.50;4.13;;;;;;;0.11;43.94;99155.31;6196629;22;20172;-83
2022/03/20 03:55:32;;;;;;;7.13;4.40;;;;;;;0.18;43.84;99175.09;6219106;22;20168;-87
2022/03/20 03:58:01;;;;;;;9.90;4.20;;;;;;;-0.03;44.09;99137.13;6242011;22;20239;-83
2022/03/20 04:00:32;;;;;;;7.67;4.77;;;;;;;0.27;43.35;99188.94;6219157;22;20675;-89
2022/03/20 04:03:00;;;;;;;5.70;4.03;;;;;;;0.33;43.90;99178.91;6217998;22;20214;-83
2022/03/20 04:05:28;;;;;;;6.27;4.30;;;;;;;-0.43;43.10;99040.91;6217345;22;20188;-85
2022/03/20 04:07:56;;;;;;;7.37;3.90;;;;;;;-0.16;43.52;99104.47;6243464;22;20522;-88
2022/03/20 04:10:24;;;;;;;4.97;3.97;;;;;;;0.32;42.83;99148.31;6215981;22;20172;-89
2022/03/20 04:12:51;;;;;;;6.87;3.83;;;;;;;0.16;42.79;99147.03;6243788;22;20188;-85
2022/03/20 04:15:27;;;;;;;8.00;4.57;;;;;;;0.22;42.56;99149.75;6269225;22;20172;-88
2022/03/20 04:17:56;;;;;;;5.40;3.57;;;;;;;0.39;42.29;99168.91;6218146;22;20570;-80
2022/03/20 04:20:23;;;;;;;7.17;3.63;;;;;;;0.47;41.59;99169.13;6242599;22;20183;-82
2022/03/20 04:25:41;;;;;;;7.40;4.43;;;;;;;0.15;42.42;99124.91;6218185;22;20160;-86
2022/03/20 04:28:09;;;;;;;7.97;4.77;;;;;;;0.44;43.16;99169.91;6269300;22;20176;-84
2022/03/20 04:30:37;;;;;;;6.97;3.67;;;;;;;0.40;42.67;99165.53;6218249;22;20664;-85
2022/03/20 04:33:04;;;;;;;7.27;4.37;;;;;;;0.23;42.73;99130.25;6216759;22;20259;-81
2022/03/20 04:35:32;;;;;;;7.73;4.33;;;;;;;0.20;42.80;99125.91;6217536;22;20168;-83
2022/03/20 04:38:04;;;;;;;7.00;4.67;;;;;;;0.20;43.35;99151.38;6246306;22;20156;-81
2022/03/20 04:40:33;;;;;;;7.10;4.20;;;;;;;0.39;43.23;99189.28;6219532;22;20204;-83
2022/03/20 04:43:00;;;;;;;7.47;4.80;;;;;;;0.46;42.20;99214.13;6218547;22;20253;-85
2022/03/20 04:45:28;;;;;;;5.30;3.83;;;;;;;0.36;41.68;99162.84;6215681;22;20168;-89
2022/03/20 04:59:02;;;;;;;8.63;4.93;;;;;;;0.77;41.63;99168.28;6218249;22;20164;-82
2022/03/20 05:01:29;;;;;;;6.90;4.77;;;;;;;0.43;40.96;99093.41;6219479;22;20671;-86
2022/03/20 05:03:56;;;;;;;8.27;4.23;;;;;;;0.83;41.10;99142.06;6219748;22;20172;-82
2022/03/20 05:06:23;;;;;;;9.93;5.57;;;;;;;0.98;41.34;99142.47;6245378;22;20609;-83
2022/03/20 05:08:50;;;;;;;7.93;4.83;;;;;;;0.87;41.68;99150.69;6251182;22;20164;-88
2022/03/20 05:14:07;;;;;;;6.83;4.23;;;;;;;0.92;40.63;99149.09;6181567;22;20168;-88
2022/03/20 05:16:34;;;;;;;8.83;4.53;;;;;;;0.41;41.26;99079.78;6221968;22;20175;-88
2022/03/20 05:19:02;;;;;;;5.57;4.03;;;;;;;0.86;40.68;99152.34;6221227;22;20629;-87
2022/03/20 05:21:29;;;;;;;6.87;4.10;;;;;;;0.68;41.58;99091.53;6273583;22;20199;-86
2022/03/20 05:23:56;;;;;;;8.87;4.43;;;;;;;1.37;40.83;99204.69;6244359;22;20175;-87
2022/03/20 05:26:23;;;;;;;5.93;3.93;;;;;;;1.12;41.10;99176.84;6221545;22;20177;-87
2022/03/20 05:28:51;;;;;;;7.43;4.40;;;;;;;1.00;41.50;99155.25;6245109;22;20176;-87
2022/03/20 05:31:19;;;;;;;7.40;4.77;;;;;;;0.87;41.28;99104.78;6221911;22;20176;-88
2022/03/20 05:34:26;;;;;;;6.53;3.67;;;;;;;1.58;40.83;99200.13;6243662;22;20187;-82
2022/03/20 05:37:47;;;;;;;5.77;4.60;;;;;;;1.88;41.05;99209.31;6241600;22;20168;-83
2022/03/20 05:44:48;;;;;;;6.43;4.67;;;;;;;2.05;38.80;99219.09;6219713;22;20301;-88
2022/03/20 05:48:09;;;;;;;5.70;3.77;;;;;;;1.78;38.22;99171.63;6269377;22;20533;-86
2022/03/20 05:51:30;;;;;;;8.47;4.47;;;;;;;2.01;37.72;99206.22;6219475;22;20523;-87
2022/03/20 05:54:51;;;;;;;7.37;4.50;;;;;;;2.01;38.45;99232.63;6197753;22;20169;-86
2022/03/20 05:58:15;;;;;;;7.07;4.67;;;;;;;2.08;38.71;99237.03;6227458;22;20175;-84
2022/03/20 06:01:36;;;;;;;14.73;7.17;;;;;;;2.21;38.12;99238.19;6253400;22;20196;-88
2022/03/20 06:04:56;;;;;;;5.33;4.07;;;;;;;2.25;38.17;99230.63;6202527;22;20168;-84
2022/03/20 06:08:21;;;;;;;7.00;3.80;;;;;;;2.07;39.28;99216.56;6226293;22;20168;-89
2022/03/20 06:11:45;;;;;;;6.17;3.87;;;;;;;2.14;39.12;99234.63;6225143;22;20303;-86
2022/03/20 06:15:08;;;;;;;7.90;4.33;;;;;;;2.24;38.88;99234.03;6222950;22;20175;-85
2022/03/20 06:18:29;;;;;;;7.90;4.27;;;;;;;2.48;36.96;99233.66;6245856;22;20199;-83
2022/03/20 06:21:50;;;;;;;8.00;4.87;;;;;;;2.60;37.53;99240.75;6165465;23;20217;-86
2022/03/20 06:25:12;;;;;;;6.73;3.90;;;;;;;2.49;36.89;99243.09;6216317;23;20244;-91
2022/03/20 06:28:33;;;;;;;7.30;4.60;;;;;;;2.46;35.54;99223.41;6190004;23;20169;-84
2022/03/20 06:31:55;;;;;;;6.80;4.47;;;;;;;2.61;36.20;99192.19;6199282;23;20165;-88
2022/03/20 06:35:18;;;;;;;9.23;4.37;;;;;;;3.07;36.25;99234.88;6190947;23;20207;-87
2022/03/20 06:38:41;;;;;;;7.60;4.20;;;;;;;3.00;35.73;99239.00;6193335;23;20177;-89
2022/03/20 06:42:04;;;;;;;7.40;4.17;;;;;;;3.10;35.39;99235.78;6218839;23;20193;-87
2022/03/20 06:45:27;;;;;;;5.20;3.57;;;;;;;3.04;34.79;99237.38;6212908;23;20196;-87
2022/03/20 06:48:48;;;;;;;5.57;3.80;;;;;;;3.28;35.05;99233.56;6168734;23;20169;-96
2022/03/20 06:52:08;;;;;;;6.40;4.40;;;;;;;3.45;34.35;99233.00;6191322;23;20178;-90
2022/03/20 06:55:30;;;;;;;7.40;4.20;;;;;;;3.46;33.85;99239.84;6167309;23;20169;-89
2022/03/20 06:58:51;;;;;;;7.83;4.57;;;;;;;3.48;34.75;99222.81;6212097;23;20704;-89
2022/03/20 07:02:12;;;;;;;9.60;4.40;;;;;;;3.71;34.26;99232.59;6169252;23;20264;-85
2022/03/20 07:05:35;;;;;;;6.30;3.87;;;;;;;3.54;33.75;99213.53;6171221;23;20180;-96
2022/03/20 07:09:00;;;;;;;4.40;3.37;;;;;;;3.48;32.16;99169.03;6191283;23;20256;-84
2022/03/20 07:12:22;;;;;;;5.63;3.23;;;;;;;3.81;32.88;99226.78;6187966;23;20204;-84
2022/03/20 07:15:43;;;;;;;6.17;3.63;;;;;;;4.02;32.63;99228.81;6167318;23;20170;-86
2022/03/20 07:19:04;;;;;;;7.43;4.67;;;;;;;3.97;32.55;99233.88;6175384;22;20175;-91
2022/03/20 07:22:26;;;;;;;6.00;4.00;;;;;;;4.17;32.60;99231.59;6224450;22;20585;-86
2022/03/20 07:29:30;;;;;;;5.40;3.43;;;;;;;3.83;32.85;99216.56;6218483;22;20214;-85
2022/03/20 07:32:52;;;;;;;6.40;3.73;;;;;;;3.98;31.96;99206.53;6200173;22;20173;-84
2022/03/20 07:36:13;;;;;;;4.73;3.10;;;;;;;4.29;31.01;99225.78;6256082;22;20247;-82
2022/03/20 07:39:43;;;;;;;6.40;3.87;;;;;;;4.03;30.82;99223.72;6243894;22;20160;-82
2022/03/20 07:43:04;;;;;;;9.80;5.53;;;;;;;4.08;30.37;99222.06;6278105;22;20166;-86
2022/03/20 07:46:29;;;;;;;4.27;3.27;;;;;;;4.25;30.96;99235.13;6220918;22;20170;-87
2022/03/20 07:49:51;;;;;;;4.53;3.47;;;;;;;3.95;31.09;99232.13;6223735;22;20252;-86
2022/03/20 07:53:12;;;;;;;6.00;3.80;;;;;;;4.18;31.11;99222.22;6271365;22;20174;-89
2022/03/20 07:56:41;;;;;;;5.03;3.30;;;;;;;3.88;29.93;99123.53;6202275;22;20234;-86
2022/03/20 08:00:01;;;;;;;4.50;3.57;;;;;;;4.19;29.53;99178.63;6247110;22;20329;-83
2022/03/20 08:03:23;;;;;;;5.57;3.33;;;;;;;4.40;29.62;99219.09;6196432;22;20173;-84
2022/03/20 08:06:44;;;;;;;4.07;3.20;;;;;;;4.13;29.20;99150.34;6244225;22;20173;-86
2022/03/20 08:10:08;;;;;;;7.70;3.87;;;;;;;4.61;29.42;99212.56;6199845;22;20173;-80
2022/03/20 08:13:31;;;;;;;5.80;3.50;;;;;;;4.73;29.51;99217.84;6216529;22;20177;-82
2022/03/20 08:16:53;;;;;;;5.90;3.70;;;;;;;4.80;28.86;99214.47;6216392;22;20254;-83
2022/03/20 08:20:14;;;;;;;9.50;5.47;;;;;;;4.91;28.47;99197.50;6269058;22;20198;-82
2022/03/20 08:23:35;;;;;;;7.10;4.67;;;;;;;4.88;28.16;99210.28;6269800;22;20165;-88
2022/03/20 08:26:57;;;;;;;4.50;3.33;;;;;;;4.40;27.79;99209.72;6220766;22;20172;-79
2022/03/20 08:30:17;;;;;;;5.20;3.60;;;;;;;4.05;28.88;99216.03;6193175;22;20649;-85
2022/03/20 08:33:40;;;;;;;7.03;4.00;;;;;;;3.86;28.77;99212.34;6271478;22;20172;-85
2022/03/20 08:37:02;;;;;;;8.73;4.43;;;;;;;4.20;28.59;99203.44;6245033;22;20188;-81
2022/03/20 08:40:24;;;;;;;5.70;3.30;;;;;;;4.38;27.81;99196.00;6196821;22;20167;-81
2022/03/20 08:43:46;;;;;;;5.67;3.87;;;;;;;4.33;28.48;99205.31;6241651;22;20619;-82
2022/03/20 08:47:07;;;;;;;7.27;2.90;;;;;;;3.95;28.73;99203.94;6224502;22;20176;-84
2022/03/20 08:50:32;;;;;;;5.83;3.23;;;;;;;3.99;29.33;99188.63;6200050;22;20240;-89
2022/03/20 08:53:54;;;;;;;5.87;3.53;;;;;;;3.92;29.23;99204.75;6255728;22;20234;-82
2022/03/20 08:57:42;;;;;;;3.50;3.20;;;;;;;3.82;29.31;99222.50;6275276;22;20645;-82
2022/03/20 09:01:06;;;;;;;4.83;2.80;;;;;;;3.59;28.97;99131.63;6222428;22;20603;-82
2022/03/20 09:04:28;;;;;;;7.17;3.90;;;;;;;4.04;28.88;99180.97;6218288;22;20540;-84
2022/03/20 09:07:50;;;;;;;5.63;3.60;;;;;;;3.97;29.09;99174.94;6251685;22;20660;-84
2022/03/20 09:11:16;;;;;;;8.27;4.87;;;;;;;3.83;29.32;99186.66;6237217;22;20172;-82
2022/03/20 09:14:39;;;;;;;3.90;3.20;;;;;;;4.01;29.80;99148.50;6224755;22;20175;-82
2022/03/20 09:21:45;;;;;;;4.67;3.90;;;;;;;4.08;30.05;99126.38;6245915;22;20683;-81
2022/03/20 09:25:09;;;;;;;5.17;3.67;;;;;;;4.31;29.40;99165.97;6219815;22;20249;-84
2022/03/20 09:28:43;;;;;;;6.60;4.40;;;;;;;4.43;29.58;99163.56;6273572;22;20185;-81
2022/03/20 09:32:05;;;;;;;5.13;3.97;;;;;;;3.95;29.67;99089.47;6210138;22;20221;-81
2022/03/20 09:35:29;;;;;;;4.20;3.53;;;;;;;4.16;30.35;99139.28;6274202;22;20157;-81
2022/03/20 09:39:21;;;;;;;5.10;2.90;;;;;;;4.35;30.29;99149.78;6240350;22;20173;-88
2022/03/20 09:42:43;;;;;;;6.13;3.73;;;;;;;4.06;29.87;99067.38;6235760;22;20230;-82
2022/03/20 09:46:04;;;;;;;5.80;4.20;;;;;;;4.10;30.33;99105.03;6216752;23;20174;-86
2022/03/20 09:49:25;;;;;;;6.73;4.13;;;;;;;4.57;29.84;99174.00;6197472;23;20182;-85
2022/03/20 09:52:46;;;;;;;6.37;4.00;;;;;;;4.55;30.59;99148.34;6238832;23;20190;-87
2022/03/20 09:56:07;;;;;;;5.97;3.80;;;;;;;4.49;29.51;99145.69;6207172;23;20239;-84
2022/03/20 09:59:27;;;;;;;7.77;4.17;;;;;;;4.64;30.04;99143.31;6212075;23;20261;-85
2022/03/20 10:02:48;;;;;;;6.00;4.20;;;;;;;4.84;29.43;99153.78;6212169;23;20198;-83
2022/03/20 10:06:22;;;;;;;5.60;3.87;;;;;;;5.24;28.31;99139.63;6238711;23;20194;-86
2022/03/20 10:09:44;;;;;;;5.63;4.40;;;;;;;5.26;28.90;99136.22;6176734;22;20173;-82
2022/03/20 10:13:11;;;;;;;12.87;4.93;;;;;;;5.61;28.99;99124.53;6267886;22;20265;-86
2022/03/20 10:16:38;;;;;;;7.40;4.20;;;;;;;5.69;28.70;99125.44;6242269;22;20675;-87
2022/03/20 10:19:21;;;;;;;6.00;3.97;;;;;;;5.62;28.48;99123.69;6272913;22;20214;-88
2022/03/20 10:22:45;;;;;;;6.57;4.40;;;;;;;5.23;27.66;99128.50;6272744;22;20568;-84
2022/03/20 10:26:10;;;;;;;5.60;3.40;;;;;;;5.24;27.47;99129.34;6273213;22;20220;-87
2022/03/20 10:29:34;;;;;;;5.50;3.67;;;;;;;4.62;27.45;99087.66;6272712;22;20165;-88
2022/03/20 10:32:55;;;;;;;6.40;4.03;;;;;;;5.41;26.82;99122.66;6221545;22;20181;-82
2022/03/20 10:36:14;;;;;;;5.53;4.17;;;;;;;5.48;27.92;99119.28;6244400;22;20670;-83
2022/03/20 10:39:36;;;;;;;6.93;3.97;;;;;;;5.42;28.00;99117.50;6198480;22;20173;-91
2022/03/20 10:42:57;;;;;;;6.30;3.47;;;;;;;5.54;28.64;99127.03;6194876;22;20276;-85
2022/03/20 10:46:21;;;;;;;6.43;3.83;;;;;;;5.38;26.99;99091.81;6197205;22;20170;-88
2022/03/20 10:49:42;;;;;;;6.30;4.83;;;;;;;5.75;27.24;99093.75;6196842;22;20167;-88
2022/03/20 10:53:11;;;;;;;7.10;3.87;;;;;;;5.52;26.95;99055.06;6273495;22;20230;-91
2022/03/20 10:56:36;;;;;;;5.07;3.80;;;;;;;5.70;27.76;99092.88;6248018;22;20174;-87
2022/03/20 10:59:58;;;;;;;4.90;3.80;;;;;;;5.74;26.88;99098.06;6280288;22;20253;-84
2022/03/20 11:03:22;;;;;;;9.13;4.33;;;;;;;5.28;27.63;99085.72;6263103;22;20692;-93
2022/03/20 11:06:54;;;;;;;5.17;4.10;;;;;;;5.09;27.86;99077.88;6248830;22;20169;-81
2022/03/20 11:10:14;;;;;;;5.67;3.33;;;;;;;4.94;28.84;99079.47;6271899;22;20177;-81
2022/03/20 11:13:40;;;;;;;6.40;4.03;;;;;;;5.40;27.86;99074.69;6246386;22;20171;-84
2022/03/20 11:17:02;;;;;;;5.97;4.20;;;;;;;5.08;27.78;99071.00;6220951;22;20175;-84
2022/03/20 11:20:30;;;;;;;6.90;4.83;;;;;;;5.73;26.85;99074.88;6272437;22;20204;-81
2022/03/20 11:23:51;;;;;;;5.87;3.77;;;;;;;5.73;27.29;99080.03;6274843;22;20201;-83
2022/03/20 11:27:12;;;;;;;6.10;4.13;;;;;;;5.68;27.91;99076.59;6272292;22;20243;-83
2022/03/20 11:30:40;;;;;;;5.43;4.03;;;;;;;5.57;28.46;99047.38;6246398;22;20523;-78
2022/03/20 11:34:02;;;;;;;12.50;8.00;;;;;;;6.02;27.97;99096.53;6272586;22;20477;-89
2022/03/20 11:37:38;;;;;;;6.63;4.47;;;;;;;5.65;28.52;99064.56;6272423;22;20249;-83
2022/03/20 11:40:59;;;;;;;7.13;4.80;;;;;;;6.03;28.71;99074.25;6272693;22;20566;-90
2022/03/20 11:44:38;;;;;;;7.23;4.83;;;;;;;5.96;28.19;99059.63;6273202;22;20171;-82
2022/03/20 11:47:59;;;;;;;8.40;4.93;;;;;;;5.81;29.63;99067.25;6247204;22;20180;-87
2022/03/20 11:51:25;;;;;;;7.30;4.47;;;;;;;5.94;29.64;99064.78;6266641;22;20223;-82
2022/03/20 11:54:52;;;;;;;7.90;4.83;;;;;;;5.64;29.93;99064.56;6269063;22;20236;-83
2022/03/20 11:57:35;;;;;;;5.70;4.00;;;;;;;5.59;30.18;99055.97;6269098;22;20187;-85
2022/03/20 12:01:02;;;;;;;5.83;4.23;;;;;;;5.83;30.69;99033.00;6268642;22;20168;-82
2022/03/20 12:04:40;;;;;;;6.67;4.53;;;;;;;6.34;28.83;99043.50;6265674;22;20175;-87
2022/03/20 12:08:16;;;;;;;9.87;5.47;;;;;;;5.86;29.57;99043.31;6242856;22;20170;-82
2022/03/20 12:11:16;;;;;;;9.23;5.73;;;;;;;5.95;30.99;99045.94;6242860;22;20181;-83
2022/03/20 12:14:23;;;;;;;13.27;6.27;;;;;;;5.62;31.57;99040.56;6220478;22;20516;-84
2022/03/20 12:17:43;;;;;;;8.30;5.97;;;;;;;5.68;31.26;99040.59;6193470;22;20253;-84
2022/03/20 12:21:09;;;;;;;7.70;4.50;;;;;;;6.07;31.12;99030.53;6245181;22;20554;-85
2022/03/20 12:24:30;;;;;;;12.43;5.83;;;;;;;6.23;30.78;99032.31;6243345;22;20519;-84
2022/03/20 12:27:34;;;;;;;7.87;5.37;;;;;;;5.75;31.93;99019.22;6265198;22;20169;-91
2022/03/20 12:30:17;;;;;;;8.37;5.57;;;;;;;6.23;31.32;99014.31;6247004;22;20278;-80
2022/03/20 12:33:40;;;;;;;8.70;6.27;;;;;;;5.93;30.52;99019.34;6246219;22;20160;-79
2022/03/20 12:37:07;;;;;;;9.57;5.17;;;;;;;5.59;31.70;99014.84;6270633;22;20166;-84
2022/03/20 12:39:54;;;;;;;7.80;5.67;;;;;;;5.38;31.32;98983.91;6219388;22;20174;-81
2022/03/20 12:42:23;;;;;;;8.37;5.80;;;;;;;5.67;31.18;98941.22;6242830;22;20194;-82
2022/03/20 12:44:52;;;;;;;8.90;6.17;;;;;;;5.94;30.99;99010.78;6215948;22;20182;-84
2022/03/20 12:47:25;;;;;;;10.13;4.87;;;;;;;5.75;30.74;98986.66;6269463;22;20166;-81
2022/03/20 12:50:23;;;;;;;7.87;5.10;;;;;;;5.88;31.11;98995.31;6252961;22;20174;-80
2022/03/20 12:52:54;;;;;;;8.67;5.30;;;;;;;5.63;32.00;98955.78;6214265;22;20211;-80
2022/03/20 12:55:27;;;;;;;7.07;5.47;;;;;;;5.67;31.39;98915.50;6218798;22;20523;-85
2022/03/20 12:57:55;;;;;;;10.60;5.53;;;;;;;6.32;31.34;99004.06;6217229;22;20240;-84
2022/03/20 13:00:37;;;;;;;6.80;5.63;;;;;;;6.07;31.24;98998.81;6194244;22;20168;-81
2022/03/20 13:03:12;;;;;;;7.70;5.47;;;;;;;6.09;32.57;99002.25;6241835;22;20623;-81
2022/03/20 13:05:45;;;;;;;9.03;5.30;;;;;;;5.82;31.34;99008.13;6221776;22;20633;-84
2022/03/20 13:08:23;;;;;;;8.33;5.47;;;;;;;5.67;31.80;98988.34;6227732;22;20184;-80
2022/03/20 13:11:03;;;;;;;9.37;5.97;;;;;;;5.37;32.27;98964.19;6226193;22;20170;-86
2022/03/20 13:13:36;;;;;;;9.67;5.70;;;;;;;5.51;32.11;98970.28;6275263;22;20164;-92
2022/03/20 13:16:15;;;;;;;7.50;5.20;;;;;;;5.76;32.36;98987.53;6272934;22;20249;-89
2022/03/20 13:18:45;;;;;;;9.93;5.50;;;;;;;5.67;31.78;98975.50;6247866;22;20282;-87
2022/03/20 13:21:16;;;;;;;9.27;5.60;;;;;;;5.66;31.94;98935.25;6273266;22;20203;-88
2022/03/20 13:23:46;;;;;;;7.70;6.00;;;;;;;5.56;31.72;98879.50;6249727;22;20711;-93
2022/03/20 13:26:20;;;;;;;8.43;5.50;;;;;;;5.71;31.35;98884.69;6249463;22;20446;-92
2022/03/20 13:28:48;;;;;;;8.57;5.60;;;;;;;6.20;31.59;98980.84;6279247;22;20181;-89
2022/03/20 13:31:23;;;;;;;8.20;5.73;;;;;;;5.89;31.40;98940.50;6249741;22;20175;-81
2022/03/20 13:34:00;;;;;;;9.37;6.33;;;;;;;5.94;31.90;98956.78;6222850;22;20166;-81
2022/03/20 13:36:39;;;;;;;7.83;5.20;;;;;;;5.75;31.97;98970.38;6272561;22;20186;-81
2022/03/20 13:39:11;;;;;;;10.37;5.47;;;;;;;5.59;30.63;98912.06;6218865;22;20202;-87
2022/03/20 13:41:41;;;;;;;7.73;5.30;;;;;;;5.23;30.47;98886.22;6245491;22;20576;-86
2022/03/20 13:44:13;;;;;;;5.50;4.50;;;;;;;5.41;30.96;98979.66;6218900;22;20174;-84
2022/03/20 13:46:43;;;;;;;10.07;5.30;;;;;;;5.18;30.52;98913.56;6245393;22;20163;-81
2022/03/20 13:49:11;;;;;;;9.17;5.63;;;;;;;5.76;30.64;98982.38;6271263;22;20597;-81
2022/03/20 13:51:44;;;;;;;9.13;5.80;;;;;;;5.89;30.58;98961.06;6195411;22;20196;-85
2022/03/20 13:54:23;;;;;;;9.03;5.27;;;;;;;5.77;30.50;98901.84;6197317;22;20176;-80
2022/03/20 13:57:07;;;;;;;8.17;5.07;;;;;;;6.13;30.45;98963.69;6271796;22;20160;-83
2022/03/20 13:59:48;;;;;;;8.20;5.30;;;;;;;5.98;30.58;98971.34;6245027;22;20173;-85
2022/03/20 14:02:15;;;;;;;6.73;4.50;;;;;;;5.63;30.86;98888.09;6220098;22;20210;-86
2022/03/20 14:04:47;;;;;;;8.43;5.80;;;;;;;5.66;30.28;98888.97;6247929;22;20171;-86
2022/03/20 14:07:24;;;;;;;9.03;5.40;;;;;;;6.06;30.32;98961.13;6245393;22;20198;-83
2022/03/20 14:09:53;;;;;;;7.87;5.33;;;;;;;5.61;30.65;98888.09;6246513;22;20241;-81
2022/03/20 14:12:32;;;;;;;8.40;5.30;;;;;;;5.97;29.99;98930.22;6221290;22;20288;-86